Terminal Aerodrome Forecast
Issued by NWS Flagstaff, AZ

Home | Current Version | Previous Version | Text Only | Print | Product List | Glossary On
Versions: 1 2 3 4 5 6 7 8 9 10 11 12 13 14
000
FTUS45 KFGZ 300522
TAFFLG
TAF
KFLG 300522Z 3006/3106 VRB05KT P6SM FEW080
     FM301700 22009G17KT P6SM SCT060 PROB30 3017/3023 VRB15G25KT 3SM
      TSRA BKN040CB
     FM310200 VRB03KT P6SM FEW070=

USA.gov is the U.S. government's official web portal to all federal, state and local government web resources and services.